Time;durP1;ratioP1;P1;durP2;ratioP2;P2;SDS_P1;SDS_P2;PMS_P1;PMS_P2;Temp;Humidity;BMP_temperature;BMP_pressure;BME280_temperature;BME280_humidity;BME280_pressure;Samples;Min_cycle;Max_cycle;Signal;HPM_P1;HPM_P2
2021/12/23 00:01:42;;;;;;;341.65;42.58;;;;;;;;;;5031603;28;20037;-48
2021/12/23 00:04:10;;;;;;;271.13;34.92;;;;;;;;;;5033303;28;20045;-51
2021/12/23 00:06:39;;;;;;;244.45;31.98;;;;;;;;;;5033223;28;20022;-49
2021/12/23 00:09:06;;;;;;;134.88;20.40;;;;;;;;;;5031065;28;20029;-50
2021/12/23 00:11:33;;;;;;;101.32;15.70;;;;;;;;;;5032340;28;20021;-53
2021/12/23 00:14:06;;;;;;;65.78;12.02;;;;;;;;;;5032714;28;20053;-48
2021/12/23 00:16:45;;;;;;;137.98;19.05;;;;;;;;;;5032660;28;20045;-50
2021/12/23 00:19:34;;;;;;;85.95;16.48;;;;;;;;;;5031246;28;20030;-53
2021/12/23 00:24:46;;;;;;;82.80;12.68;;;;;;;;;;5033063;28;20045;-52
2021/12/23 00:27:14;;;;;;;72.00;13.65;;;;;;;;;;5033010;28;20022;-56
2021/12/23 00:29:41;;;;;;;67.10;13.35;;;;;;;;;;5030819;28;20103;-56
2021/12/23 00:32:09;;;;;;;84.65;12.63;;;;;;;;;;5031035;28;20489;-69
2021/12/23 00:34:36;;;;;;;89.45;15.32;;;;;;;;;;5031785;28;20057;-62
2021/12/23 00:37:06;;;;;;;168.85;22.83;;;;;;;;;;5031401;28;20013;-60
2021/12/23 00:39:33;;;;;;;97.93;16.67;;;;;;;;;;5029061;28;20033;-62
2021/12/23 00:42:06;;;;;;;96.93;14.60;;;;;;;;;;5029996;28;20479;-58
2021/12/23 00:44:39;;;;;;;72.03;12.35;;;;;;;;;;5031878;28;20030;-59
2021/12/23 00:47:06;;;;;;;162.25;28.42;;;;;;;;;;5031588;28;20025;-59
2021/12/23 00:49:33;;;;;;;117.28;15.75;;;;;;;;;;5031974;28;20508;-59
2021/12/23 00:52:03;;;;;;;91.65;15.52;;;;;;;;;;5030218;28;20388;-58
2021/12/23 00:54:30;;;;;;;217.15;29.48;;;;;;;;;;5030956;28;20393;-58
2021/12/23 00:56:57;;;;;;;71.93;12.52;;;;;;;;;;5032975;28;20029;-60
2021/12/23 00:59:35;;;;;;;110.38;15.75;;;;;;;;;;5030990;28;20072;-60
2021/12/23 01:02:06;;;;;;;55.80;11.25;;;;;;;;;;5006698;28;20757;-60
2021/12/23 01:04:33;;;;;;;77.57;12.77;;;;;;;;;;5029547;28;20037;-60
2021/12/23 01:07:00;;;;;;;71.82;11.60;;;;;;;;;;5026987;28;20467;-60
2021/12/23 01:09:27;;;;;;;40.35;10.70;;;;;;;;;;5030757;28;20064;-59
2021/12/23 01:11:55;;;;;;;100.35;17.85;;;;;;;;;;5029702;28;20049;-60
2021/12/23 01:19:27;;;;;;;69.35;16.65;;;;;;;;;;5029037;28;20021;-60
2021/12/23 01:21:55;;;;;;;58.25;12.82;;;;;;;;;;5011820;28;20041;-59
2021/12/23 01:24:26;;;;;;;72.10;13.05;;;;;;;;;;5028445;28;20495;-60
2021/12/23 01:26:53;;;;;;;78.60;14.23;;;;;;;;;;5028594;28;20061;-59
2021/12/23 01:29:20;;;;;;;32.78;10.60;;;;;;;;;;5028916;28;20021;-59
2021/12/23 01:31:47;;;;;;;48.55;9.95;;;;;;;;;;5030613;28;20116;-60
2021/12/23 01:34:14;;;;;;;174.98;26.63;;;;;;;;;;5030382;28;20026;-60
2021/12/23 01:36:41;;;;;;;38.70;9.30;;;;;;;;;;5030645;28;20056;-60
2021/12/23 01:39:08;;;;;;;34.13;8.05;;;;;;;;;;5026223;28;20755;-59
2021/12/23 01:41:35;;;;;;;37.40;7.97;;;;;;;;;;5030242;28;20046;-59
2021/12/23 01:44:04;;;;;;;39.90;7.55;;;;;;;;;;5030202;28;20034;-59
2021/12/23 01:46:31;;;;;;;24.50;7.60;;;;;;;;;;5030728;28;20484;-60
2021/12/23 01:48:58;;;;;;;21.67;7.70;;;;;;;;;;5026146;28;20064;-60
2021/12/23 01:51:25;;;;;;;30.70;7.93;;;;;;;;;;5030303;28;20037;-60
2021/12/23 01:53:52;;;;;;;36.38;7.93;;;;;;;;;;5029944;28;20451;-60
2021/12/23 01:56:19;;;;;;;35.13;9.10;;;;;;;;;;5030796;28;20116;-60
2021/12/23 01:58:46;;;;;;;90.68;14.48;;;;;;;;;;5025211;28;20029;-61
2021/12/23 02:01:13;;;;;;;172.50;24.80;;;;;;;;;;5029182;28;20037;-60
2021/12/23 02:03:41;;;;;;;72.03;11.40;;;;;;;;;;5029178;28;20026;-61
2021/12/23 02:06:08;;;;;;;33.58;7.45;;;;;;;;;;5030475;28;20034;-61
2021/12/23 02:08:36;;;;;;;30.17;6.70;;;;;;;;;;5006091;28;20520;-59
2021/12/23 02:11:05;;;;;;;24.73;6.72;;;;;;;;;;5030045;28;20021;-59
2021/12/23 02:13:32;;;;;;;43.33;9.63;;;;;;;;;;5029548;28;20029;-59
2021/12/23 02:15:59;;;;;;;69.65;12.48;;;;;;;;;;5029900;28;20512;-59
2021/12/23 02:18:27;;;;;;;107.78;14.75;;;;;;;;;;5024767;28;20042;-59
2021/12/23 02:20:54;;;;;;;40.97;8.93;;;;;;;;;;5029871;28;20040;-59
2021/12/23 02:23:22;;;;;;;39.97;8.23;;;;;;;;;;5029269;28;20373;-58
2021/12/23 02:25:50;;;;;;;157.77;23.00;;;;;;;;;;5027877;28;20028;-58
2021/12/23 02:28:17;;;;;;;183.85;25.27;;;;;;;;;;5027378;28;20999;-59
2021/12/23 02:30:45;;;;;;;47.45;10.25;;;;;;;;;;5027382;28;20080;-58
2021/12/23 02:33:12;;;;;;;36.42;9.13;;;;;;;;;;5029020;28;20063;-58
2021/12/23 02:35:40;;;;;;;102.82;18.08;;;;;;;;;;5030128;28;20412;-58
2021/12/23 02:38:07;;;;;;;79.85;14.77;;;;;;;;;;5029840;28;20675;-58
2021/12/23 02:40:36;;;;;;;152.57;23.30;;;;;;;;;;5024727;28;20072;-59
2021/12/23 02:43:17;;;;;;;145.27;23.67;;;;;;;;;;5028718;28;20049;-59
2021/12/23 02:45:46;;;;;;;66.25;15.55;;;;;;;;;;5021706;28;20049;-58
2021/12/23 02:48:18;;;;;;;67.00;14.30;;;;;;;;;;5029153;28;20802;-58
2021/12/23 02:50:46;;;;;;;78.25;14.25;;;;;;;;;;5025339;28;20029;-58
2021/12/23 02:53:14;;;;;;;49.80;10.98;;;;;;;;;;5029010;28;20427;-59
2021/12/23 02:55:41;;;;;;;45.75;11.23;;;;;;;;;;5011057;28;20029;-58
2021/12/23 02:58:09;;;;;;;53.30;12.20;;;;;;;;;;5029690;28;20096;-59
2021/12/23 03:00:37;;;;;;;42.53;9.57;;;;;;;;;;5021041;28;20043;-59
2021/12/23 03:03:05;;;;;;;40.33;11.55;;;;;;;;;;5010191;28;20087;-59
2021/12/23 03:05:32;;;;;;;82.05;13.65;;;;;;;;;;5026456;28;20026;-59
2021/12/23 03:08:02;;;;;;;61.08;11.88;;;;;;;;;;5012856;28;20065;-59
2021/12/23 03:10:29;;;;;;;61.42;11.85;;;;;;;;;;5018928;28;20030;-59
2021/12/23 03:12:56;;;;;;;54.47;10.07;;;;;;;;;;5031358;28;20638;-59
2021/12/23 03:15:23;;;;;;;40.28;11.30;;;;;;;;;;5033816;28;20025;-59
2021/12/23 03:17:50;;;;;;;46.38;10.35;;;;;;;;;;5034302;28;20057;-58
2021/12/23 03:20:18;;;;;;;40.40;9.45;;;;;;;;;;5029656;28;20658;-59
2021/12/23 03:22:45;;;;;;;36.63;11.38;;;;;;;;;;5033442;28;20025;-59
2021/12/23 03:25:12;;;;;;;38.47;9.90;;;;;;;;;;5034145;28;20029;-59
2021/12/23 03:27:39;;;;;;;61.63;13.50;;;;;;;;;;5033800;28;20052;-59
2021/12/23 03:30:08;;;;;;;51.40;11.88;;;;;;;;;;5029246;28;20105;-58
2021/12/23 03:32:35;;;;;;;47.88;11.73;;;;;;;;;;5033358;28;20049;-59
2021/12/23 03:35:02;;;;;;;39.25;10.10;;;;;;;;;;5033132;28;20026;-60
2021/12/23 03:37:29;;;;;;;34.42;8.98;;;;;;;;;;5033446;28;20040;-59
2021/12/23 03:39:56;;;;;;;44.72;11.15;;;;;;;;;;5031492;28;20040;-59
2021/12/23 03:42:23;;;;;;;37.05;9.77;;;;;;;;;;5030647;28;20107;-59
2021/12/23 03:44:50;;;;;;;28.52;10.05;;;;;;;;;;5033465;28;20056;-60
2021/12/23 03:47:17;;;;;;;52.95;11.65;;;;;;;;;;5033355;28;20033;-61
2021/12/23 03:49:44;;;;;;;36.40;8.85;;;;;;;;;;5033817;28;20025;-60
2021/12/23 03:52:11;;;;;;;37.90;9.13;;;;;;;;;;5029132;28;20023;-59
2021/12/23 03:54:38;;;;;;;32.78;8.18;;;;;;;;;;5033189;28;20094;-59
2021/12/23 03:57:06;;;;;;;33.60;9.00;;;;;;;;;;5033644;28;20029;-60
2021/12/23 03:59:34;;;;;;;28.58;8.40;;;;;;;;;;5033582;28;20032;-60
2021/12/23 04:02:01;;;;;;;26.40;7.00;;;;;;;;;;5026570;28;20033;-61
2021/12/23 04:04:28;;;;;;;85.43;15.88;;;;;;;;;;5031688;28;20025;-61
2021/12/23 04:06:55;;;;;;;49.20;9.45;;;;;;;;;;5032791;28;20033;-59
2021/12/23 04:09:22;;;;;;;46.13;9.07;;;;;;;;;;5032224;28;20021;-60
2021/12/23 04:11:49;;;;;;;50.65;9.20;;;;;;;;;;5029066;28;20655;-60
2021/12/23 04:14:16;;;;;;;38.83;8.07;;;;;;;;;;5032490;28;20018;-60
2021/12/23 04:16:43;;;;;;;35.95;8.18;;;;;;;;;;5032927;28;20474;-60
2021/12/23 04:19:11;;;;;;;31.58;6.50;;;;;;;;;;5032215;28;20022;-59
2021/12/23 04:21:39;;;;;;;33.10;8.02;;;;;;;;;;5028073;28;20072;-59
2021/12/23 04:24:06;;;;;;;54.55;8.18;;;;;;;;;;5032201;28;20026;-59
2021/12/23 04:26:33;;;;;;;63.67;10.13;;;;;;;;;;5032842;28;20038;-59
2021/12/23 04:29:00;;;;;;;67.47;12.07;;;;;;;;;;5032718;28;20111;-58
2021/12/23 04:31:27;;;;;;;50.13;9.73;;;;;;;;;;5028020;28;20045;-59
2021/12/23 04:33:55;;;;;;;29.95;6.22;;;;;;;;;;5032384;28;20572;-60
2021/12/23 04:36:26;;;;;;;29.83;6.63;;;;;;;;;;5032010;28;20274;-60
2021/12/23 04:38:54;;;;;;;31.97;5.97;;;;;;;;;;5032324;28;20163;-60
2021/12/23 04:41:21;;;;;;;23.90;5.35;;;;;;;;;;5030391;28;20060;-59
2021/12/23 04:43:49;;;;;;;24.52;5.38;;;;;;;;;;5029630;28;20041;-60
2021/12/23 04:46:16;;;;;;;21.75;4.57;;;;;;;;;;5032817;28;20017;-60
2021/12/23 04:48:45;;;;;;;23.48;4.78;;;;;;;;;;5032275;28;20053;-60
2021/12/23 04:51:12;;;;;;;14.35;4.65;;;;;;;;;;5032457;28;20473;-59
2021/12/23 04:53:40;;;;;;;41.33;7.07;;;;;;;;;;5027017;28;20033;-59
2021/12/23 04:56:07;;;;;;;19.10;4.43;;;;;;;;;;5032615;28;20022;-60
2021/12/23 04:58:34;;;;;;;19.95;3.45;;;;;;;;;;5032557;28;20024;-59
2021/12/23 05:01:03;;;;;;;11.68;3.33;;;;;;;;;;5032223;28;20033;-59
2021/12/23 05:03:30;;;;;;;31.50;5.82;;;;;;;;;;5027537;28;20469;-60
2021/12/23 05:05:57;;;;;;;30.95;4.70;;;;;;;;;;5031542;28;20425;-60
2021/12/23 05:08:24;;;;;;;18.63;3.67;;;;;;;;;;5014201;28;20373;-59
2021/12/23 05:10:51;;;;;;;27.35;4.25;;;;;;;;;;5031954;28;20029;-59
2021/12/23 05:13:18;;;;;;;13.73;2.10;;;;;;;;;;5026570;28;20079;-59
2021/12/23 05:15:45;;;;;;;8.85;2.28;;;;;;;;;;5032062;28;20475;-58
2021/12/23 05:18:12;;;;;;;10.02;2.22;;;;;;;;;;5031910;28;20037;-58
2021/12/23 05:20:39;;;;;;;11.68;2.35;;;;;;;;;;5031393;28;20459;-58
2021/12/23 05:23:06;;;;;;;12.55;2.10;;;;;;;;;;5027166;28;20500;-59
2021/12/23 05:25:33;;;;;;;13.38;2.47;;;;;;;;;;5030968;28;20091;-59
2021/12/23 05:28:01;;;;;;;12.27;2.40;;;;;;;;;;5031888;28;20029;-59
2021/12/23 05:30:28;;;;;;;14.13;2.45;;;;;;;;;;5031711;28;20099;-59
2021/12/23 05:32:56;;;;;;;9.45;2.50;;;;;;;;;;5027065;28;20150;-58
2021/12/23 05:35:23;;;;;;;9.02;2.50;;;;;;;;;;5011246;28;20421;-59
2021/12/23 05:37:51;;;;;;;19.83;3.00;;;;;;;;;;5011096;28;20081;-58
2021/12/23 05:40:19;;;;;;;32.50;5.13;;;;;;;;;;5011406;28;20026;-60
2021/12/23 05:42:47;;;;;;;56.25;9.70;;;;;;;;;;5011507;28;20077;-59
2021/12/23 05:45:15;;;;;;;56.65;9.55;;;;;;;;;;5028687;28;20578;-60
2021/12/23 05:47:42;;;;;;;34.88;4.93;;;;;;;;;;5031500;28;20100;-59
2021/12/23 05:50:10;;;;;;;44.22;6.88;;;;;;;;;;5031365;28;20112;-59
2021/12/23 05:52:37;;;;;;;22.42;3.92;;;;;;;;;;5031260;28;20021;-58
2021/12/23 05:55:06;;;;;;;20.92;4.10;;;;;;;;;;5025857;28;20108;-59
2021/12/23 05:57:33;;;;;;;17.13;3.60;;;;;;;;;;5031292;28;20436;-58
2021/12/23 06:00:00;;;;;;;8.40;2.38;;;;;;;;;;5031202;28;20065;-59
2021/12/23 06:02:27;;;;;;;12.88;3.03;;;;;;;;;;5030632;28;20037;-59
2021/12/23 06:04:54;;;;;;;9.93;1.88;;;;;;;;;;5026037;28;20052;-58
2021/12/23 06:07:22;;;;;;;6.93;2.20;;;;;;;;;;5030797;28;20022;-59
2021/12/23 06:09:49;;;;;;;13.30;2.97;;;;;;;;;;5030890;28;20025;-59
2021/12/23 06:12:15;;;;;;;4.32;2.00;;;;;;;;;;5012518;28;20108;-59
2021/12/23 06:14:43;;;;;;;5.55;1.88;;;;;;;;;;5026692;28;20025;-59
2021/12/23 06:17:09;;;;;;;7.20;2.20;;;;;;;;;;5030711;28;20385;-59
2021/12/23 06:19:37;;;;;;;8.35;2.17;;;;;;;;;;5030751;28;20112;-59
2021/12/23 06:22:04;;;;;;;6.40;2.03;;;;;;;;;;5030078;28;20117;-59
2021/12/23 06:24:31;;;;;;;5.15;2.08;;;;;;;;;;5025603;28;20029;-59
2021/12/23 06:26:59;;;;;;;5.35;1.75;;;;;;;;;;5030854;28;20025;-59
2021/12/23 06:29:26;;;;;;;4.85;1.92;;;;;;;;;;5030594;28;20039;-59
2021/12/23 06:31:53;;;;;;;7.63;1.83;;;;;;;;;;5030611;28;20052;-59
2021/12/23 06:34:20;;;;;;;3.05;1.67;;;;;;;;;;5026100;28;20037;-59
2021/12/23 06:36:47;;;;;;;8.50;2.58;;;;;;;;;;5030096;28;20504;-59
2021/12/23 06:39:14;;;;;;;4.00;2.00;;;;;;;;;;5030281;28;20175;-60
2021/12/23 06:41:41;;;;;;;3.97;1.88;;;;;;;;;;5030235;28;20084;-60
2021/12/23 06:44:08;;;;;;;12.15;2.28;;;;;;;;;;5029211;28;20493;-59
2021/12/23 06:46:35;;;;;;;9.90;2.45;;;;;;;;;;5026458;28;20120;-60
2021/12/23 06:49:03;;;;;;;6.00;1.98;;;;;;;;;;5030115;28;20022;-58
2021/12/23 06:51:30;;;;;;;3.90;2.05;;;;;;;;;;5030322;28;20484;-60
2021/12/23 06:53:59;;;;;;;5.65;2.45;;;;;;;;;;5030201;28;20425;-59
2021/12/23 06:56:26;;;;;;;9.40;2.15;;;;;;;;;;5025484;28;20083;-59
2021/12/23 06:58:53;;;;;;;8.65;3.17;;;;;;;;;;5030124;28;20030;-60
2021/12/23 07:01:21;;;;;;;8.65;1.98;;;;;;;;;;5029128;28;20034;-58
2021/12/23 07:06:23;;;;;;;5.63;1.92;;;;;;;;;;5025523;28;20602;-59
2021/12/23 07:08:53;;;;;;;5.68;2.38;;;;;;;;;;5030387;28;20083;-59
2021/12/23 07:11:20;;;;;;;8.05;2.58;;;;;;;;;;5029754;28;20461;-60
2021/12/23 07:13:47;;;;;;;3.67;1.95;;;;;;;;;;5029859;28;20125;-59
2021/12/23 07:16:14;;;;;;;5.28;2.40;;;;;;;;;;5007339;28;20362;-59
2021/12/23 07:18:41;;;;;;;7.35;2.72;;;;;;;;;;5029864;28;20028;-59
2021/12/23 07:21:08;;;;;;;4.55;2.28;;;;;;;;;;5029610;28;20061;-59
2021/12/23 07:23:35;;;;;;;10.55;2.85;;;;;;;;;;5029849;28;20354;-59
2021/12/23 07:26:02;;;;;;;6.90;2.53;;;;;;;;;;5024673;28;20059;-58
2021/12/23 07:28:29;;;;;;;6.00;2.88;;;;;;;;;;5030109;28;20029;-60
2021/12/23 07:30:56;;;;;;;6.78;2.72;;;;;;;;;;5030043;28;20080;-61
2021/12/23 07:33:23;;;;;;;5.93;2.30;;;;;;;;;;5029719;28;20029;-59
2021/12/23 07:35:51;;;;;;;12.45;3.00;;;;;;;;;;5007639;28;20393;-59
2021/12/23 07:38:18;;;;;;;7.38;2.50;;;;;;;;;;5028947;28;20072;-59
2021/12/23 07:40:45;;;;;;;14.93;3.72;;;;;;;;;;5012320;28;20374;-60
2021/12/23 07:43:42;;;;;;;5.50;2.80;;;;;;;;;;5029318;28;20050;-59
2021/12/23 07:46:08;;;;;;;5.97;3.08;;;;;;;;;;5024878;28;20083;-59
2021/12/23 07:48:35;;;;;;;4.90;2.45;;;;;;;;;;5029540;28;20104;-58
2021/12/23 07:51:03;;;;;;;6.82;3.03;;;;;;;;;;5012258;28;20091;-59
2021/12/23 07:53:31;;;;;;;11.57;3.15;;;;;;;;;;5011754;28;20021;-60
2021/12/23 07:55:58;;;;;;;7.43;2.58;;;;;;;;;;5027086;28;20377;-58
2021/12/23 07:58:25;;;;;;;9.05;2.60;;;;;;;;;;5027710;28;20083;-59
2021/12/23 08:00:52;;;;;;;6.68;2.65;;;;;;;;;;5032482;28;20044;-58
2021/12/23 08:03:19;;;;;;;5.45;2.40;;;;;;;;;;5033006;28;20550;-59
2021/12/23 08:05:46;;;;;;;7.95;2.58;;;;;;;;;;5032850;28;20057;-59
2021/12/23 08:08:13;;;;;;;9.20;2.85;;;;;;;;;;5027915;28;20029;-60
2021/12/23 08:10:40;;;;;;;6.72;2.75;;;;;;;;;;5033378;28;20489;-60
2021/12/23 08:13:07;;;;;;;8.48;2.72;;;;;;;;;;5033171;28;20049;-60
2021/12/23 08:15:35;;;;;;;6.57;2.05;;;;;;;;;;5032734;28;20026;-60
2021/12/23 08:18:02;;;;;;;7.88;2.50;;;;;;;;;;5028330;28;20030;-59
2021/12/23 08:20:29;;;;;;;6.22;2.20;;;;;;;;;;5032883;28;20048;-59
2021/12/23 08:22:56;;;;;;;4.95;2.17;;;;;;;;;;5032478;28;20120;-59
2021/12/23 08:25:23;;;;;;;8.30;2.47;;;;;;;;;;5032683;28;20496;-59
2021/12/23 08:27:51;;;;;;;7.43;2.17;;;;;;;;;;5028221;28;20026;-58
2021/12/23 08:30:19;;;;;;;4.15;2.17;;;;;;;;;;4999353;28;20029;-58
2021/12/23 08:32:47;;;;;;;7.15;2.55;;;;;;;;;;5032631;28;20034;-58
2021/12/23 08:35:14;;;;;;;5.20;1.90;;;;;;;;;;5032496;28;20021;-59
2021/12/23 08:37:45;;;;;;;8.73;2.42;;;;;;;;;;5027469;28;20095;-60
2021/12/23 08:40:13;;;;;;;9.15;2.35;;;;;;;;;;5032694;28;20032;-60
2021/12/23 08:42:40;;;;;;;6.68;2.55;;;;;;;;;;5032401;28;20144;-60
2021/12/23 08:45:10;;;;;;;10.40;2.78;;;;;;;;;;5032616;28;20049;-58
2021/12/23 08:47:38;;;;;;;4.07;2.13;;;;;;;;;;5027226;28;20037;-59
2021/12/23 08:50:07;;;;;;;6.15;2.25;;;;;;;;;;5032590;28;20017;-60
2021/12/23 08:52:34;;;;;;;4.65;2.10;;;;;;;;;;5032372;28;20611;-59
2021/12/23 08:55:02;;;;;;;4.90;2.10;;;;;;;;;;5032656;28;20068;-58
2021/12/23 08:57:29;;;;;;;6.40;2.25;;;;;;;;;;5029073;28;20026;-60
2021/12/23 08:59:56;;;;;;;4.70;1.90;;;;;;;;;;5030500;28;20024;-59
2021/12/23 09:02:23;;;;;;;6.72;2.03;;;;;;;;;;5032225;28;20026;-59
2021/12/23 09:04:50;;;;;;;6.75;2.20;;;;;;;;;;5032049;28;20049;-59
2021/12/23 09:07:17;;;;;;;6.03;2.10;;;;;;;;;;5031903;28;20525;-59
2021/12/23 09:09:51;;;;;;;9.40;2.17;;;;;;;;;;5027080;28;20669;-59
2021/12/23 09:12:21;;;;;;;8.45;2.83;;;;;;;;;;5031853;28;20035;-59
2021/12/23 09:14:48;;;;;;;4.50;2.13;;;;;;;;;;5031621;28;20030;-59
2021/12/23 09:17:15;;;;;;;8.52;2.38;;;;;;;;;;5013456;28;20025;-60
2021/12/23 09:19:43;;;;;;;13.30;2.13;;;;;;;;;;5027759;28;20025;-61
2021/12/23 09:22:10;;;;;;;4.53;2.05;;;;;;;;;;5031665;28;20083;-61
2021/12/23 09:24:38;;;;;;;9.30;2.08;;;;;;;;;;5031441;28;20028;-59
2021/12/23 09:34:58;;;;;;;7.00;2.20;;;;;;;;;;5032077;28;20124;-58
2021/12/23 09:37:26;;;;;;;7.90;3.00;;;;;;;;;;5030969;28;20590;-59
2021/12/23 09:39:55;;;;;;;6.18;2.28;;;;;;;;;;5026610;28;20104;-60
2021/12/23 09:42:25;;;;;;;6.20;2.90;;;;;;;;;;5030880;28;20073;-59
2021/12/23 09:44:57;;;;;;;8.02;2.75;;;;;;;;;;5031511;28;20030;-59
2021/12/23 09:47:26;;;;;;;6.47;2.17;;;;;;;;;;5030702;28;20684;-59
2021/12/23 09:49:54;;;;;;;17.17;4.13;;;;;;;;;;5026590;28;20028;-59
2021/12/23 09:52:23;;;;;;;21.50;4.20;;;;;;;;;;5031145;28;20037;-58
2021/12/23 09:54:50;;;;;;;16.50;3.53;;;;;;;;;;5031248;28;20032;-59
2021/12/23 09:57:17;;;;;;;13.02;3.15;;;;;;;;;;5030797;28;20021;-58
2021/12/23 09:59:44;;;;;;;8.70;3.28;;;;;;;;;;5026513;28;20466;-58
2021/12/23 10:02:11;;;;;;;6.60;2.67;;;;;;;;;;5031201;28;20131;-58
2021/12/23 10:04:38;;;;;;;6.93;3.28;;;;;;;;;;5031486;28;20029;-59
2021/12/23 10:07:05;;;;;;;8.98;3.30;;;;;;;;;;5030992;28;20035;-59
2021/12/23 10:31:33;;;;;;;9.27;3.50;;;;;;;;;;5026272;28;20037;-59
2021/12/23 10:37:19;;;;;;;9.77;3.90;;;;;;;;;;5031018;28;20067;-59
2021/12/23 10:39:48;;;;;;;8.05;4.38;;;;;;;;;;5027831;28;20478;-58
2021/12/23 10:42:20;;;;;;;9.82;3.90;;;;;;;;;;5027835;28;20053;-59
2021/12/23 10:44:51;;;;;;;12.00;3.88;;;;;;;;;;5030522;28;20092;-59
2021/12/23 10:47:35;;;;;;;9.25;3.70;;;;;;;;;;5029911;28;20056;-58
2021/12/23 10:53:05;;;;;;;10.35;3.80;;;;;;;;;;4968420;28;20030;-58
2021/12/23 10:58:18;;;;;;;8.80;3.83;;;;;;;;;;5010320;28;20075;-59
2021/12/23 11:00:49;;;;;;;7.05;4.00;;;;;;;;;;4994579;28;20181;-59
2021/12/23 11:03:24;;;;;;;9.02;4.25;;;;;;;;;;5029627;28;20119;-58
2021/12/23 11:06:23;;;;;;;8.93;4.28;;;;;;;;;;5021853;28;20555;-58
2021/12/23 11:09:16;;;;;;;9.73;3.95;;;;;;;;;;5029451;28;20095;-60
2021/12/23 11:42:01;;;;;;;10.20;3.85;;;;;;;;;;5019139;28;20049;-58
2021/12/23 11:44:31;;;;;;;19.15;4.28;;;;;;;;;;5031893;28;20041;-59
2021/12/23 11:47:08;;;;;;;7.75;3.97;;;;;;;;;;5031895;28;20048;-60
2021/12/23 11:49:38;;;;;;;13.73;3.90;;;;;;;;;;5032709;28;20113;-61
2021/12/23 11:52:05;;;;;;;12.20;3.97;;;;;;;;;;5034306;28;20044;-59
2021/12/23 11:54:37;;;;;;;9.68;3.60;;;;;;;;;;5033934;28;20095;-59
2021/12/23 11:57:06;;;;;;;13.40;5.13;;;;;;;;;;5025057;28;20125;-63
2021/12/23 11:59:36;;;;;;;12.63;3.55;;;;;;;;;;5022795;28;20109;-62
2021/12/23 12:02:12;;;;;;;15.25;4.07;;;;;;;;;;5024561;28;20029;-62
2021/12/23 12:04:39;;;;;;;8.20;3.65;;;;;;;;;;5024950;28;20488;-62
2021/12/23 12:07:17;;;;;;;11.05;3.42;;;;;;;;;;5031489;28;20385;-57
2021/12/23 12:10:02;;;;;;;9.95;3.65;;;;;;;;;;5015879;28;20437;-60
2021/12/23 12:12:30;;;;;;;8.68;3.63;;;;;;;;;;5033097;28;20507;-59
2021/12/23 12:14:58;;;;;;;15.48;3.60;;;;;;;;;;5008997;28;20496;-60
2021/12/23 12:17:25;;;;;;;9.15;3.50;;;;;;;;;;5031153;28;20021;-60
2021/12/23 12:20:05;;;;;;;8.60;3.60;;;;;;;;;;5033216;28;20088;-60
2021/12/23 12:22:48;;;;;;;13.65;3.47;;;;;;;;;;5032983;28;20052;-61
2021/12/23 12:25:24;;;;;;;12.68;3.50;;;;;;;;;;5030797;28;20033;-61
2021/12/23 12:28:11;;;;;;;19.20;5.45;;;;;;;;;;5027568;28;20026;-60
2021/12/23 12:30:38;;;;;;;22.08;5.43;;;;;;;;;;5027830;28;20033;-60
2021/12/23 12:33:06;;;;;;;18.23;4.07;;;;;;;;;;5027513;28;20029;-60
2021/12/23 12:35:33;;;;;;;18.63;4.32;;;;;;;;;;5020730;28;20025;-60
2021/12/23 12:38:14;;;;;;;18.58;3.90;;;;;;;;;;5013732;28;20062;-64
2021/12/23 12:40:59;;;;;;;18.85;4.65;;;;;;;;;;5012006;28;20183;-62
2021/12/23 12:43:47;;;;;;;15.07;4.18;;;;;;;;;;5012818;28;20482;-63
2021/12/23 12:46:34;;;;;;;16.58;4.15;;;;;;;;;;5013387;28;20120;-60
2021/12/23 12:49:08;;;;;;;14.32;3.53;;;;;;;;;;5013583;28;20481;-60
2021/12/23 12:51:37;;;;;;;23.00;3.70;;;;;;;;;;5012848;28;20026;-61
2021/12/23 12:54:06;;;;;;;11.38;3.03;;;;;;;;;;5022146;28;20030;-62
2021/12/23 12:56:38;;;;;;;19.52;5.25;;;;;;;;;;5022278;28;20018;-61
2021/12/23 12:59:07;;;;;;;21.87;3.97;;;;;;;;;;5022659;28;20017;-63
2021/12/23 13:01:42;;;;;;;23.85;5.72;;;;;;;;;;5023737;28;20029;-62
2021/12/23 13:04:27;;;;;;;17.92;4.30;;;;;;;;;;5022971;28;20071;-63
2021/12/23 13:06:55;;;;;;;12.70;4.00;;;;;;;;;;5021221;28;20025;-60
2021/12/23 13:09:42;;;;;;;19.33;4.18;;;;;;;;;;5024913;28;20018;-62
2021/12/23 13:12:09;;;;;;;17.27;3.58;;;;;;;;;;5014041;28;20030;-60
2021/12/23 13:15:39;;;;;;;14.00;3.92;;;;;;;;;;5013339;28;20022;-61
2021/12/23 13:17:50;;;;;;;15.52;3.53;;;;;;;;;;5005339;28;20116;-60
2021/12/23 13:20:17;;;;;;;18.35;4.38;;;;;;;;;;5015090;28;20022;-60
2021/12/23 13:22:45;;;;;;;19.77;4.13;;;;;;;;;;5020363;28;20205;-60
2021/12/23 13:25:13;;;;;;;17.52;3.83;;;;;;;;;;5031606;28;20040;-61
2021/12/23 13:27:41;;;;;;;14.95;3.30;;;;;;;;;;5031711;28;20018;-60
2021/12/23 13:30:11;;;;;;;16.27;3.42;;;;;;;;;;5032102;28;20422;-66
2021/12/23 13:32:38;;;;;;;14.52;3.90;;;;;;;;;;5023617;28;20026;-63
2021/12/23 13:35:09;;;;;;;16.67;4.20;;;;;;;;;;5029265;28;20555;-65
2021/12/23 13:37:36;;;;;;;18.25;3.50;;;;;;;;;;5020963;28;20080;-62
2021/12/23 13:40:03;;;;;;;19.50;3.65;;;;;;;;;;5014194;28;20065;-62
2021/12/23 13:42:30;;;;;;;19.52;4.68;;;;;;;;;;5028754;28;20081;-61
2021/12/23 13:44:57;;;;;;;19.85;5.00;;;;;;;;;;5032542;28;20018;-61
2021/12/23 13:47:26;;;;;;;21.27;5.20;;;;;;;;;;5031784;28;20036;-59
2021/12/23 13:49:57;;;;;;;19.65;5.13;;;;;;;;;;5028452;28;20021;-63
2021/12/23 13:52:25;;;;;;;21.73;5.47;;;;;;;;;;5030539;28;20043;-61
2021/12/23 13:55:08;;;;;;;14.98;3.97;;;;;;;;;;5031641;28;20039;-66
2021/12/23 13:57:37;;;;;;;14.05;3.55;;;;;;;;;;5027304;28;20033;-61
2021/12/23 14:00:12;;;;;;;10.45;3.70;;;;;;;;;;5023478;28;20033;-63
2021/12/23 14:02:39;;;;;;;7.25;2.00;;;;;;;;;;5008568;28;20119;-60
2021/12/23 14:05:08;;;;;;;11.52;2.00;;;;;;;;;;5029739;28;20138;-57
2021/12/23 14:07:39;;;;;;;9.38;2.63;;;;;;;;;;5029736;28;20053;-58
2021/12/23 14:10:08;;;;;;;9.53;1.93;;;;;;;;;;5029950;28;20029;-52
2021/12/23 14:12:47;;;;;;;9.68;1.90;;;;;;;;;;5028714;28;20018;-60
2021/12/23 14:15:16;;;;;;;9.57;1.55;;;;;;;;;;5028758;28;20031;-58
2021/12/23 14:17:45;;;;;;;15.65;2.10;;;;;;;;;;5027802;28;20080;-58
2021/12/23 14:23:17;;;;;;;7.25;2.25;;;;;;;;;;5030534;28;20056;-59
2021/12/23 14:25:48;;;;;;;11.98;2.15;;;;;;;;;;5029318;28;20025;-61
2021/12/23 14:28:17;;;;;;;12.65;2.00;;;;;;;;;;5029382;28;20104;-60
2021/12/23 14:31:01;;;;;;;9.13;1.80;;;;;;;;;;5029286;28;20014;-61
2021/12/23 14:33:35;;;;;;;13.90;2.65;;;;;;;;;;5030182;28;20030;-63
2021/12/23 14:36:05;;;;;;;12.45;1.92;;;;;;;;;;5023777;28;20074;-63
2021/12/23 14:38:35;;;;;;;11.30;2.88;;;;;;;;;;5029644;28;20036;-62
2021/12/23 14:41:16;;;;;;;11.95;1.88;;;;;;;;;;5029851;28;20035;-68
2021/12/23 14:43:53;;;;;;;17.48;2.72;;;;;;;;;;5028873;28;20048;-64
2021/12/23 14:46:41;;;;;;;12.23;2.38;;;;;;;;;;5029747;28;20033;-62
2021/12/23 14:51:43;;;;;;;15.20;2.00;;;;;;;;;;5028662;28;20040;-63
2021/12/23 14:54:10;;;;;;;14.20;1.85;;;;;;;;;;5028509;28;20040;-62
2021/12/23 14:56:38;;;;;;;10.68;1.70;;;;;;;;;;5029501;28;20030;-65
2021/12/23 14:59:07;;;;;;;7.03;1.52;;;;;;;;;;5030343;28;20025;-62
2021/12/23 15:01:35;;;;;;;6.57;2.00;;;;;;;;;;5029205;28;20120;-64
2021/12/23 15:04:06;;;;;;;9.70;1.95;;;;;;;;;;5027863;28;20159;-59
2021/12/23 15:06:34;;;;;;;16.55;3.22;;;;;;;;;;5029295;28;20029;-58
2021/12/23 15:09:01;;;;;;;8.98;1.60;;;;;;;;;;5029614;28;20029;-58
2021/12/23 15:11:29;;;;;;;9.07;2.33;;;;;;;;;;5029620;28;20033;-58
2021/12/23 15:13:56;;;;;;;9.48;1.70;;;;;;;;;;5025996;28;20071;-58
2021/12/23 15:16:27;;;;;;;8.18;1.80;;;;;;;;;;5029683;28;20513;-57
2021/12/23 15:21:49;;;;;;;11.00;1.75;;;;;;;;;;5024979;28;20115;-59
2021/12/23 15:24:35;;;;;;;5.20;1.38;;;;;;;;;;5028892;28;20049;-59
2021/12/23 15:27:04;;;;;;;8.80;1.63;;;;;;;;;;5026014;28;20026;-58
2021/12/23 15:29:52;;;;;;;7.05;1.70;;;;;;;;;;5029859;28;20034;-58
2021/12/23 15:32:24;;;;;;;11.27;1.70;;;;;;;;;;5029075;28;20447;-61
2021/12/23 15:34:56;;;;;;;;;;;;;;;;;;5030149;28;20038;-61
2021/12/23 15:37:25;;;;;;;14.07;2.70;;;;;;;;;;5028270;28;19909;-59
2021/12/23 15:39:53;;;;;;;6.20;1.55;;;;;;;;;;5028089;28;20036;-59
2021/12/23 15:42:21;;;;;;;11.27;1.67;;;;;;;;;;5025845;28;20045;-61
2021/12/23 15:44:49;;;;;;;4.57;1.50;;;;;;;;;;5027594;28;20090;-58
2021/12/23 15:47:17;;;;;;;7.20;1.98;;;;;;;;;;5028026;28;20017;-59
2021/12/23 15:49:44;;;;;;;7.97;1.80;;;;;;;;;;5029854;28;20616;-59
2021/12/23 15:52:12;;;;;;;12.50;2.88;;;;;;;;;;5029206;28;20124;-61
2021/12/23 15:54:39;;;;;;;10.93;2.10;;;;;;;;;;5026411;28;20385;-59
2021/12/23 15:57:07;;;;;;;13.60;3.28;;;;;;;;;;5029229;28;20029;-61
2021/12/23 15:59:34;;;;;;;8.30;1.70;;;;;;;;;;5028303;28;20045;-59
2021/12/23 16:02:02;;;;;;;10.45;2.70;;;;;;;;;;5029632;28;20147;-58
2021/12/23 16:04:32;;;;;;;11.55;1.88;;;;;;;;;;5028340;28;20025;-59
2021/12/23 16:07:19;;;;;;;11.10;2.05;;;;;;;;;;5029679;28;20631;-60
2021/12/23 16:09:48;;;;;;;14.68;2.63;;;;;;;;;;5026622;28;20491;-58
2021/12/23 16:12:15;;;;;;;14.65;2.25;;;;;;;;;;5029255;28;20029;-59